sensor_id;sensor_type;location;lat;lon;timestamp;P1;durP1;ratioP1;P2;durP2;ratioP2
11303;SDS011;5707;49.588;12.148;2023-03-12T00:01:34;2.47;;;2.28;;
11303;SDS011;5707;49.588;12.148;2023-03-12T00:04:02;3.28;;;2.97;;
11303;SDS011;5707;49.588;12.148;2023-03-12T00:06:28;3.63;;;3.13;;
11303;SDS011;5707;49.588;12.148;2023-03-12T00:08:54;2.45;;;2.25;;
11303;SDS011;5707;49.588;12.148;2023-03-12T00:11:19;3.75;;;3.45;;
11303;SDS011;5707;49.588;12.148;2023-03-12T00:13:52;4.63;;;4.22;;
11303;SDS011;5707;49.588;12.148;2023-03-12T00:16:19;3.45;;;3.15;;
11303;SDS011;5707;49.588;12.148;2023-03-12T00:18:49;3.97;;;2.92;;
11303;SDS011;5707;49.588;12.148;2023-03-12T00:21:16;2.33;;;2.20;;
11303;SDS011;5707;49.588;12.148;2023-03-12T00:23:45;3.42;;;2.45;;
11303;SDS011;5707;49.588;12.148;2023-03-12T00:26:16;2.80;;;2.60;;
11303;SDS011;5707;49.588;12.148;2023-03-12T00:28:42;3.17;;;2.88;;
11303;SDS011;5707;49.588;12.148;2023-03-12T00:33:51;2.15;;;1.80;;
11303;SDS011;5707;49.588;12.148;2023-03-12T00:36:18;2.05;;;1.40;;
11303;SDS011;5707;49.588;12.148;2023-03-12T00:38:48;1.27;;;1.17;;
11303;SDS011;5707;49.588;12.148;2023-03-12T00:41:15;1.50;;;1.40;;
11303;SDS011;5707;49.588;12.148;2023-03-12T00:43:41;3.88;;;1.67;;
11303;SDS011;5707;49.588;12.148;2023-03-12T00:46:06;3.40;;;2.20;;
11303;SDS011;5707;49.588;12.148;2023-03-12T00:48:32;1.95;;;1.77;;
11303;SDS011;5707;49.588;12.148;2023-03-12T00:50:57;2.58;;;2.10;;
11303;SDS011;5707;49.588;12.148;2023-03-12T00:53:23;1.60;;;1.50;;
11303;SDS011;5707;49.588;12.148;2023-03-12T00:55:48;1.45;;;1.30;;
11303;SDS011;5707;49.588;12.148;2023-03-12T00:58:14;1.67;;;1.58;;
11303;SDS011;5707;49.588;12.148;2023-03-12T01:00:39;1.73;;;1.60;;
11303;SDS011;5707;49.588;12.148;2023-03-12T01:03:05;1.15;;;1.13;;
11303;SDS011;5707;49.588;12.148;2023-03-12T01:05:31;1.98;;;1.80;;
11303;SDS011;5707;49.588;12.148;2023-03-12T01:08:01;2.53;;;2.33;;
11303;SDS011;5707;49.588;12.148;2023-03-12T01:10:30;2.45;;;1.80;;
11303;SDS011;5707;49.588;12.148;2023-03-12T01:12:55;2.65;;;1.92;;
11303;SDS011;5707;49.588;12.148;2023-03-12T01:15:22;3.08;;;2.60;;
11303;SDS011;5707;49.588;12.148;2023-03-12T01:17:47;2.55;;;2.35;;
11303;SDS011;5707;49.588;12.148;2023-03-12T01:20:13;3.40;;;2.30;;
11303;SDS011;5707;49.588;12.148;2023-03-12T01:22:39;2.22;;;1.95;;
11303;SDS011;5707;49.588;12.148;2023-03-12T01:25:04;2.03;;;1.90;;
11303;SDS011;5707;49.588;12.148;2023-03-12T01:27:30;2.22;;;2.00;;
11303;SDS011;5707;49.588;12.148;2023-03-12T01:29:56;1.90;;;1.67;;
11303;SDS011;5707;49.588;12.148;2023-03-12T01:32:22;1.60;;;1.50;;
11303;SDS011;5707;49.588;12.148;2023-03-12T01:34:47;1.85;;;1.70;;
11303;SDS011;5707;49.588;12.148;2023-03-12T01:37:13;2.25;;;1.90;;
11303;SDS011;5707;49.588;12.148;2023-03-12T01:39:38;2.40;;;2.20;;
11303;SDS011;5707;49.588;12.148;2023-03-12T01:42:04;2.03;;;1.85;;
11303;SDS011;5707;49.588;12.148;2023-03-12T01:44:30;1.60;;;1.50;;
11303;SDS011;5707;49.588;12.148;2023-03-12T01:47:12;1.40;;;1.30;;
11303;SDS011;5707;49.588;12.148;2023-03-12T01:49:37;1.83;;;1.70;;
11303;SDS011;5707;49.588;12.148;2023-03-12T01:52:04;4.05;;;1.60;;
11303;SDS011;5707;49.588;12.148;2023-03-12T01:55:15;2.08;;;1.90;;
11303;SDS011;5707;49.588;12.148;2023-03-12T01:57:26;2.35;;;1.95;;
11303;SDS011;5707;49.588;12.148;2023-03-12T02:00:06;5.90;;;1.98;;
11303;SDS011;5707;49.588;12.148;2023-03-12T02:02:36;2.70;;;1.60;;
11303;SDS011;5707;49.588;12.148;2023-03-12T02:05:08;1.75;;;1.58;;
11303;SDS011;5707;49.588;12.148;2023-03-12T02:07:39;2.13;;;1.88;;
11303;SDS011;5707;49.588;12.148;2023-03-12T02:10:05;2.42;;;2.22;;
11303;SDS011;5707;49.588;12.148;2023-03-12T02:12:31;2.40;;;2.20;;
11303;SDS011;5707;49.588;12.148;2023-03-12T02:14:57;2.58;;;1.75;;
11303;SDS011;5707;49.588;12.148;2023-03-12T02:17:22;2.20;;;2.00;;
11303;SDS011;5707;49.588;12.148;2023-03-12T02:22:36;2.03;;;1.73;;
11303;SDS011;5707;49.588;12.148;2023-03-12T02:27:56;2.35;;;1.98;;
11303;SDS011;5707;49.588;12.148;2023-03-12T02:30:24;4.20;;;2.97;;
11303;SDS011;5707;49.588;12.148;2023-03-12T02:32:51;2.92;;;2.15;;
11303;SDS011;5707;49.588;12.148;2023-03-12T02:35:18;2.30;;;2.03;;
11303;SDS011;5707;49.588;12.148;2023-03-12T02:37:50;2.40;;;2.15;;
11303;SDS011;5707;49.588;12.148;2023-03-12T02:40:37;2.17;;;2.08;;
11303;SDS011;5707;49.588;12.148;2023-03-12T02:43:07;1.92;;;1.77;;
11303;SDS011;5707;49.588;12.148;2023-03-12T02:45:34;6.18;;;2.10;;
11303;SDS011;5707;49.588;12.148;2023-03-12T02:48:01;2.10;;;1.90;;
11303;SDS011;5707;49.588;12.148;2023-03-12T02:50:27;2.22;;;2.13;;
11303;SDS011;5707;49.588;12.148;2023-03-12T02:52:53;2.58;;;1.88;;
11303;SDS011;5707;49.588;12.148;2023-03-12T02:55:19;2.10;;;1.90;;
11303;SDS011;5707;49.588;12.148;2023-03-12T02:57:44;1.98;;;1.77;;
11303;SDS011;5707;49.588;12.148;2023-03-12T03:00:11;2.00;;;1.90;;
11303;SDS011;5707;49.588;12.148;2023-03-12T03:02:39;1.65;;;1.55;;
11303;SDS011;5707;49.588;12.148;2023-03-12T03:05:05;1.63;;;1.52;;
11303;SDS011;5707;49.588;12.148;2023-03-12T03:07:32;1.92;;;1.67;;
11303;SDS011;5707;49.588;12.148;2023-03-12T03:09:58;1.95;;;1.40;;
11303;SDS011;5707;49.588;12.148;2023-03-12T03:12:34;1.60;;;1.50;;
11303;SDS011;5707;49.588;12.148;2023-03-12T03:15:01;1.60;;;1.50;;
11303;SDS011;5707;49.588;12.148;2023-03-12T03:17:27;1.98;;;1.70;;
11303;SDS011;5707;49.588;12.148;2023-03-12T03:19:53;1.75;;;1.63;;
11303;SDS011;5707;49.588;12.148;2023-03-12T03:22:19;1.42;;;1.30;;
11303;SDS011;5707;49.588;12.148;2023-03-12T03:24:45;2.00;;;1.60;;
11303;SDS011;5707;49.588;12.148;2023-03-12T03:27:12;1.83;;;1.48;;
11303;SDS011;5707;49.588;12.148;2023-03-12T03:29:38;1.40;;;1.30;;
11303;SDS011;5707;49.588;12.148;2023-03-12T03:32:03;1.73;;;1.63;;
11303;SDS011;5707;49.588;12.148;2023-03-12T03:34:29;1.70;;;1.60;;
11303;SDS011;5707;49.588;12.148;2023-03-12T03:36:55;3.67;;;2.00;;
11303;SDS011;5707;49.588;12.148;2023-03-12T03:39:20;2.45;;;1.75;;
11303;SDS011;5707;49.588;12.148;2023-03-12T03:41:46;1.98;;;1.55;;
11303;SDS011;5707;49.588;12.148;2023-03-12T03:44:12;1.73;;;1.63;;
11303;SDS011;5707;49.588;12.148;2023-03-12T03:46:38;3.60;;;2.50;;
11303;SDS011;5707;49.588;12.148;2023-03-12T03:49:04;3.47;;;2.42;;
11303;SDS011;5707;49.588;12.148;2023-03-12T03:51:30;2.85;;;2.50;;
11303;SDS011;5707;49.588;12.148;2023-03-12T03:53:55;3.25;;;2.40;;
11303;SDS011;5707;49.588;12.148;2023-03-12T03:56:24;2.70;;;2.50;;
11303;SDS011;5707;49.588;12.148;2023-03-12T03:58:49;2.38;;;2.17;;
11303;SDS011;5707;49.588;12.148;2023-03-12T04:01:15;3.92;;;1.95;;
11303;SDS011;5707;49.588;12.148;2023-03-12T04:03:40;3.22;;;1.80;;
11303;SDS011;5707;49.588;12.148;2023-03-12T04:06:06;2.35;;;2.15;;
11303;SDS011;5707;49.588;12.148;2023-03-12T04:08:32;4.10;;;2.22;;
11303;SDS011;5707;49.588;12.148;2023-03-12T04:11:05;2.30;;;2.10;;
11303;SDS011;5707;49.588;12.148;2023-03-12T04:13:32;2.53;;;2.33;;
11303;SDS011;5707;49.588;12.148;2023-03-12T04:15:58;2.45;;;2.25;;
11303;SDS011;5707;49.588;12.148;2023-03-12T04:18:24;2.33;;;2.15;;
11303;SDS011;5707;49.588;12.148;2023-03-12T04:20:49;2.60;;;2.40;;
11303;SDS011;5707;49.588;12.148;2023-03-12T04:23:15;2.10;;;2.00;;
11303;SDS011;5707;49.588;12.148;2023-03-12T04:25:40;4.05;;;2.45;;
11303;SDS011;5707;49.588;12.148;2023-03-12T04:28:06;4.07;;;2.40;;
11303;SDS011;5707;49.588;12.148;2023-03-12T04:30:32;2.30;;;2.10;;
11303;SDS011;5707;49.588;12.148;2023-03-12T04:32:58;2.13;;;1.92;;
11303;SDS011;5707;49.588;12.148;2023-03-12T04:35:23;2.45;;;2.25;;
11303;SDS011;5707;49.588;12.148;2023-03-12T04:37:49;2.40;;;2.20;;
11303;SDS011;5707;49.588;12.148;2023-03-12T04:40:16;2.05;;;1.63;;
11303;SDS011;5707;49.588;12.148;2023-03-12T04:42:43;1.92;;;1.77;;
11303;SDS011;5707;49.588;12.148;2023-03-12T04:45:09;1.58;;;1.48;;
11303;SDS011;5707;49.588;12.148;2023-03-12T04:47:35;1.40;;;1.30;;
11303;SDS011;5707;49.588;12.148;2023-03-12T04:50:01;2.20;;;1.40;;
11303;SDS011;5707;49.588;12.148;2023-03-12T04:52:27;1.50;;;1.40;;
11303;SDS011;5707;49.588;12.148;2023-03-12T04:54:52;1.50;;;1.40;;
11303;SDS011;5707;49.588;12.148;2023-03-12T04:57:18;1.50;;;1.25;;
11303;SDS011;5707;49.588;12.148;2023-03-12T04:59:44;1.40;;;1.27;;
11303;SDS011;5707;49.588;12.148;2023-03-12T05:02:10;1.58;;;1.45;;
11303;SDS011;5707;49.588;12.148;2023-03-12T05:04:35;1.33;;;1.23;;
11303;SDS011;5707;49.588;12.148;2023-03-12T05:07:01;1.48;;;1.30;;
11303;SDS011;5707;49.588;12.148;2023-03-12T05:09:27;1.55;;;1.40;;
11303;SDS011;5707;49.588;12.148;2023-03-12T05:11:52;1.60;;;1.50;;
11303;SDS011;5707;49.588;12.148;2023-03-12T05:14:18;3.28;;;1.60;;
11303;SDS011;5707;49.588;12.148;2023-03-12T05:16:43;1.90;;;1.58;;
11303;SDS011;5707;49.588;12.148;2023-03-12T05:19:09;1.70;;;1.60;;
11303;SDS011;5707;49.588;12.148;2023-03-12T05:21:35;1.50;;;1.40;;
11303;SDS011;5707;49.588;12.148;2023-03-12T05:24:00;2.35;;;1.50;;
11303;SDS011;5707;49.588;12.148;2023-03-12T05:26:30;1.40;;;1.30;;
11303;SDS011;5707;49.588;12.148;2023-03-12T05:28:57;1.65;;;1.13;;
11303;SDS011;5707;49.588;12.148;2023-03-12T05:31:23;1.35;;;1.23;;
11303;SDS011;5707;49.588;12.148;2023-03-12T05:33:50;1.70;;;1.60;;
11303;SDS011;5707;49.588;12.148;2023-03-12T05:36:15;1.67;;;1.58;;
11303;SDS011;5707;49.588;12.148;2023-03-12T05:38:41;2.05;;;1.77;;
11303;SDS011;5707;49.588;12.148;2023-03-12T05:41:08;2.35;;;2.00;;
11303;SDS011;5707;49.588;12.148;2023-03-12T05:43:41;1.58;;;1.48;;
11303;SDS011;5707;49.588;12.148;2023-03-12T05:46:08;2.03;;;1.92;;
11303;SDS011;5707;49.588;12.148;2023-03-12T05:48:33;1.98;;;1.85;;
11303;SDS011;5707;49.588;12.148;2023-03-12T05:50:59;2.35;;;1.90;;
11303;SDS011;5707;49.588;12.148;2023-03-12T05:53:25;2.13;;;1.80;;
11303;SDS011;5707;49.588;12.148;2023-03-12T05:55:51;2.20;;;1.55;;
11303;SDS011;5707;49.588;12.148;2023-03-12T05:58:16;2.08;;;1.98;;
11303;SDS011;5707;49.588;12.148;2023-03-12T06:00:42;1.88;;;1.67;;
11303;SDS011;5707;49.588;12.148;2023-03-12T06:03:09;1.65;;;1.55;;
11303;SDS011;5707;49.588;12.148;2023-03-12T06:05:35;2.30;;;2.17;;
11303;SDS011;5707;49.588;12.148;2023-03-12T06:08:02;1.45;;;1.35;;
11303;SDS011;5707;49.588;12.148;2023-03-12T06:10:29;2.78;;;1.77;;
11303;SDS011;5707;49.588;12.148;2023-03-12T06:12:54;2.03;;;1.80;;
11303;SDS011;5707;49.588;12.148;2023-03-12T06:15:20;1.85;;;1.70;;
11303;SDS011;5707;49.588;12.148;2023-03-12T06:17:46;2.03;;;1.70;;
11303;SDS011;5707;49.588;12.148;2023-03-12T06:20:12;2.00;;;1.75;;
11303;SDS011;5707;49.588;12.148;2023-03-12T06:22:37;1.40;;;1.30;;
11303;SDS011;5707;49.588;12.148;2023-03-12T06:25:03;2.47;;;2.28;;
11303;SDS011;5707;49.588;12.148;2023-03-12T06:27:29;2.80;;;2.60;;
11303;SDS011;5707;49.588;12.148;2023-03-12T06:29:55;2.67;;;2.47;;
11303;SDS011;5707;49.588;12.148;2023-03-12T06:32:21;2.35;;;2.15;;
11303;SDS011;5707;49.588;12.148;2023-03-12T06:34:47;3.13;;;1.90;;
11303;SDS011;5707;49.588;12.148;2023-03-12T06:37:12;2.65;;;2.08;;
11303;SDS011;5707;49.588;12.148;2023-03-12T06:39:38;3.38;;;2.13;;
11303;SDS011;5707;49.588;12.148;2023-03-12T06:42:04;3.63;;;2.90;;
11303;SDS011;5707;49.588;12.148;2023-03-12T06:44:29;4.50;;;4.10;;
11303;SDS011;5707;49.588;12.148;2023-03-12T06:46:55;3.45;;;3.15;;
11303;SDS011;5707;49.588;12.148;2023-03-12T06:49:21;4.43;;;3.67;;
11303;SDS011;5707;49.588;12.148;2023-03-12T06:51:47;1.85;;;1.60;;
11303;SDS011;5707;49.588;12.148;2023-03-12T06:54:13;2.22;;;2.00;;
11303;SDS011;5707;49.588;12.148;2023-03-12T06:56:39;1.92;;;1.73;;
11303;SDS011;5707;49.588;12.148;2023-03-12T06:59:05;2.90;;;2.13;;
11303;SDS011;5707;49.588;12.148;2023-03-12T07:01:30;2.90;;;2.60;;
11303;SDS011;5707;49.588;12.148;2023-03-12T07:03:56;3.15;;;2.80;;
11303;SDS011;5707;49.588;12.148;2023-03-12T07:06:22;3.50;;;2.70;;
11303;SDS011;5707;49.588;12.148;2023-03-12T07:08:48;3.97;;;2.83;;
11303;SDS011;5707;49.588;12.148;2023-03-12T07:11:14;3.13;;;2.83;;
11303;SDS011;5707;49.588;12.148;2023-03-12T07:13:41;2.80;;;2.60;;
11303;SDS011;5707;49.588;12.148;2023-03-12T07:16:07;3.47;;;3.17;;
11303;SDS011;5707;49.588;12.148;2023-03-12T07:18:32;2.75;;;2.55;;
11303;SDS011;5707;49.588;12.148;2023-03-12T07:20:58;2.75;;;2.55;;
11303;SDS011;5707;49.588;12.148;2023-03-12T07:23:24;3.60;;;2.60;;
11303;SDS011;5707;49.588;12.148;2023-03-12T07:25:50;2.78;;;2.47;;
11303;SDS011;5707;49.588;12.148;2023-03-12T07:28:16;2.30;;;2.10;;
11303;SDS011;5707;49.588;12.148;2023-03-12T07:30:43;2.60;;;2.40;;
11303;SDS011;5707;49.588;12.148;2023-03-12T07:33:14;2.85;;;2.63;;
11303;SDS011;5707;49.588;12.148;2023-03-12T07:35:41;3.42;;;3.13;;
11303;SDS011;5707;49.588;12.148;2023-03-12T07:38:08;3.88;;;2.75;;
11303;SDS011;5707;49.588;12.148;2023-03-12T07:40:34;3.75;;;3.30;;
11303;SDS011;5707;49.588;12.148;2023-03-12T07:43:01;3.28;;;2.70;;
11303;SDS011;5707;49.588;12.148;2023-03-12T07:45:26;3.40;;;3.10;;
11303;SDS011;5707;49.588;12.148;2023-03-12T07:47:52;2.95;;;2.63;;
11303;SDS011;5707;49.588;12.148;2023-03-12T07:50:18;3.47;;;3.28;;
11303;SDS011;5707;49.588;12.148;2023-03-12T07:52:44;3.75;;;3.45;;
11303;SDS011;5707;49.588;12.148;2023-03-12T07:55:11;4.07;;;3.33;;
11303;SDS011;5707;49.588;12.148;2023-03-12T07:57:37;2.92;;;2.47;;
11303;SDS011;5707;49.588;12.148;2023-03-12T08:00:03;3.08;;;2.88;;
11303;SDS011;5707;49.588;12.148;2023-03-12T08:02:31;3.70;;;3.40;;
11303;SDS011;5707;49.588;12.148;2023-03-12T08:04:58;3.50;;;3.20;;
11303;SDS011;5707;49.588;12.148;2023-03-12T08:07:24;2.55;;;2.35;;
11303;SDS011;5707;49.588;12.148;2023-03-12T08:09:49;3.75;;;3.38;;
11303;SDS011;5707;49.588;12.148;2023-03-12T08:12:15;2.90;;;2.60;;
11303;SDS011;5707;49.588;12.148;2023-03-12T08:14:41;2.50;;;2.30;;
11303;SDS011;5707;49.588;12.148;2023-03-12T08:17:06;3.13;;;2.80;;
11303;SDS011;5707;49.588;12.148;2023-03-12T08:19:32;4.35;;;3.67;;
11303;SDS011;5707;49.588;12.148;2023-03-12T08:21:58;4.13;;;3.83;;
11303;SDS011;5707;49.588;12.148;2023-03-12T08:24:23;4.30;;;3.97;;
11303;SDS011;5707;49.588;12.148;2023-03-12T08:26:49;3.90;;;3.45;;
11303;SDS011;5707;49.588;12.148;2023-03-12T08:29:15;4.13;;;3.72;;
11303;SDS011;5707;49.588;12.148;2023-03-12T08:31:41;3.75;;;3.45;;
11303;SDS011;5707;49.588;12.148;2023-03-12T08:34:07;3.40;;;3.20;;
11303;SDS011;5707;49.588;12.148;2023-03-12T08:36:32;3.67;;;3.30;;
11303;SDS011;5707;49.588;12.148;2023-03-12T08:38:59;3.83;;;3.53;;
11303;SDS011;5707;49.588;12.148;2023-03-12T08:41:25;4.65;;;4.25;;
11303;SDS011;5707;49.588;12.148;2023-03-12T08:43:50;4.13;;;2.88;;
11303;SDS011;5707;49.588;12.148;2023-03-12T08:46:16;2.80;;;2.60;;
11303;SDS011;5707;49.588;12.148;2023-03-12T08:48:42;3.70;;;3.40;;
11303;SDS011;5707;49.588;12.148;2023-03-12T08:51:07;3.47;;;3.20;;
11303;SDS011;5707;49.588;12.148;2023-03-12T08:53:34;4.35;;;3.95;;
11303;SDS011;5707;49.588;12.148;2023-03-12T08:56:00;3.97;;;3.67;;
11303;SDS011;5707;49.588;12.148;2023-03-12T08:58:27;3.03;;;2.72;;
11303;SDS011;5707;49.588;12.148;2023-03-12T09:00:53;2.95;;;2.75;;
11303;SDS011;5707;49.588;12.148;2023-03-12T09:03:20;3.25;;;3.00;;
11303;SDS011;5707;49.588;12.148;2023-03-12T09:05:46;3.22;;;2.92;;
11303;SDS011;5707;49.588;12.148;2023-03-12T09:08:12;2.80;;;2.60;;
11303;SDS011;5707;49.588;12.148;2023-03-12T09:10:38;2.90;;;2.70;;
11303;SDS011;5707;49.588;12.148;2023-03-12T09:13:04;3.28;;;3.08;;
11303;SDS011;5707;49.588;12.148;2023-03-12T09:15:30;3.47;;;3.13;;
11303;SDS011;5707;49.588;12.148;2023-03-12T09:17:55;3.53;;;3.22;;
11303;SDS011;5707;49.588;12.148;2023-03-12T09:20:21;4.35;;;3.95;;
11303;SDS011;5707;49.588;12.148;2023-03-12T09:22:48;5.07;;;4.00;;
11303;SDS011;5707;49.588;12.148;2023-03-12T09:25:14;3.15;;;2.92;;
11303;SDS011;5707;49.588;12.148;2023-03-12T09:27:41;3.15;;;2.95;;
11303;SDS011;5707;49.588;12.148;2023-03-12T09:30:09;3.53;;;3.22;;
11303;SDS011;5707;49.588;12.148;2023-03-12T09:32:39;3.03;;;2.80;;
11303;SDS011;5707;49.588;12.148;2023-03-12T09:35:05;3.63;;;3.00;;
11303;SDS011;5707;49.588;12.148;2023-03-12T09:37:31;4.70;;;2.90;;
11303;SDS011;5707;49.588;12.148;2023-03-12T09:39:58;3.17;;;2.97;;
11303;SDS011;5707;49.588;12.148;2023-03-12T09:42:25;3.42;;;3.08;;
11303;SDS011;5707;49.588;12.148;2023-03-12T09:45:04;4.70;;;3.30;;
11303;SDS011;5707;49.588;12.148;2023-03-12T09:47:36;2.60;;;2.40;;
11303;SDS011;5707;49.588;12.148;2023-03-12T09:50:47;5.03;;;3.38;;
11303;SDS011;5707;49.588;12.148;2023-03-12T09:55:42;3.60;;;3.30;;
11303;SDS011;5707;49.588;12.148;2023-03-12T09:58:25;3.30;;;2.97;;
11303;SDS011;5707;49.588;12.148;2023-03-12T10:00:54;2.83;;;2.60;;
11303;SDS011;5707;49.588;12.148;2023-03-12T10:04:18;3.55;;;3.25;;
11303;SDS011;5707;49.588;12.148;2023-03-12T10:06:28;2.88;;;2.60;;
11303;SDS011;5707;49.588;12.148;2023-03-12T10:14:16;3.00;;;2.75;;
11303;SDS011;5707;49.588;12.148;2023-03-12T10:20:26;2.58;;;2.38;;
11303;SDS011;5707;49.588;12.148;2023-03-12T10:25:38;9.65;;;5.47;;
11303;SDS011;5707;49.588;12.148;2023-03-12T10:28:18;3.47;;;2.80;;
11303;SDS011;5707;49.588;12.148;2023-03-12T10:30:53;3.13;;;2.78;;
11303;SDS011;5707;49.588;12.148;2023-03-12T10:33:22;3.97;;;2.95;;
11303;SDS011;5707;49.588;12.148;2023-03-12T10:35:54;2.40;;;2.20;;
11303;SDS011;5707;49.588;12.148;2023-03-12T10:38:29;2.58;;;2.38;;
11303;SDS011;5707;49.588;12.148;2023-03-12T10:40:55;3.05;;;2.22;;
11303;SDS011;5707;49.588;12.148;2023-03-12T10:43:20;4.10;;;2.55;;
11303;SDS011;5707;49.588;12.148;2023-03-12T10:46:00;3.63;;;3.25;;
11303;SDS011;5707;49.588;12.148;2023-03-12T10:48:48;6.65;;;3.35;;
11303;SDS011;5707;49.588;12.148;2023-03-12T10:51:14;2.42;;;2.05;;
11303;SDS011;5707;49.588;12.148;2023-03-12T10:53:40;2.10;;;1.92;;
11303;SDS011;5707;49.588;12.148;2023-03-12T10:58:46;2.58;;;2.38;;
11303;SDS011;5707;49.588;12.148;2023-03-12T11:01:18;4.15;;;3.80;;
11303;SDS011;5707;49.588;12.148;2023-03-12T11:03:49;3.65;;;2.92;;
11303;SDS011;5707;49.588;12.148;2023-03-12T11:06:21;3.05;;;2.63;;
11303;SDS011;5707;49.588;12.148;2023-03-12T11:11:34;3.40;;;2.78;;
11303;SDS011;5707;49.588;12.148;2023-03-12T11:14:19;2.85;;;2.65;;
11303;SDS011;5707;49.588;12.148;2023-03-12T11:16:49;4.28;;;2.55;;
11303;SDS011;5707;49.588;12.148;2023-03-12T11:19:29;4.45;;;3.58;;
11303;SDS011;5707;49.588;12.148;2023-03-12T11:24:24;3.38;;;2.13;;
11303;SDS011;5707;49.588;12.148;2023-03-12T11:26:50;2.15;;;1.95;;
11303;SDS011;5707;49.588;12.148;2023-03-12T11:29:31;1.88;;;1.75;;
11303;SDS011;5707;49.588;12.148;2023-03-12T11:34:36;2.00;;;1.80;;
11303;SDS011;5707;49.588;12.148;2023-03-12T11:37:11;1.10;;;1.00;;
11303;SDS011;5707;49.588;12.148;2023-03-12T11:42:50;1.55;;;1.40;;
11303;SDS011;5707;49.588;12.148;2023-03-12T11:45:22;1.70;;;1.60;;
11303;SDS011;5707;49.588;12.148;2023-03-12T11:47:57;1.40;;;1.30;;
11303;SDS011;5707;49.588;12.148;2023-03-12T11:55:57;2.90;;;1.13;;
11303;SDS011;5707;49.588;12.148;2023-03-12T11:58:41;3.75;;;1.50;;
11303;SDS011;5707;49.588;12.148;2023-03-12T12:03:55;1.92;;;1.30;;
11303;SDS011;5707;49.588;12.148;2023-03-12T12:06:27;1.73;;;1.27;;
11303;SDS011;5707;49.588;12.148;2023-03-12T12:17:24;1.48;;;0.93;;
11303;SDS011;5707;49.588;12.148;2023-03-12T12:20:16;1.00;;;0.90;;
11303;SDS011;5707;49.588;12.148;2023-03-12T12:23:09;2.22;;;0.80;;
11303;SDS011;5707;49.588;12.148;2023-03-12T12:25:45;1.05;;;0.98;;
11303;SDS011;5707;49.588;12.148;2023-03-12T12:36:28;1.70;;;1.60;;
11303;SDS011;5707;49.588;12.148;2023-03-12T12:38:59;2.97;;;1.70;;
11303;SDS011;5707;49.588;12.148;2023-03-12T12:41:40;1.92;;;1.67;;
11303;SDS011;5707;49.588;12.148;2023-03-12T12:44:20;1.63;;;1.50;;
11303;SDS011;5707;49.588;12.148;2023-03-12T12:46:51;1.52;;;1.20;;
11303;SDS011;5707;49.588;12.148;2023-03-12T12:49:30;2.03;;;1.77;;
11303;SDS011;5707;49.588;12.148;2023-03-12T12:52:11;2.78;;;1.77;;
11303;SDS011;5707;49.588;12.148;2023-03-12T12:57:28;2.92;;;2.08;;
11303;SDS011;5707;49.588;12.148;2023-03-12T13:02:43;3.78;;;1.80;;
11303;SDS011;5707;49.588;12.148;2023-03-12T13:07:45;4.85;;;4.10;;
11303;SDS011;5707;49.588;12.148;2023-03-12T13:13:01;2.72;;;2.50;;
11303;SDS011;5707;49.588;12.148;2023-03-12T13:15:34;3.53;;;3.17;;
11303;SDS011;5707;49.588;12.148;2023-03-12T13:18:17;2.70;;;2.45;;
11303;SDS011;5707;49.588;12.148;2023-03-12T13:26:14;2.38;;;2.17;;
11303;SDS011;5707;49.588;12.148;2023-03-12T13:29:34;3.28;;;2.60;;
11303;SDS011;5707;49.588;12.148;2023-03-12T13:32:02;2.30;;;2.10;;
11303;SDS011;5707;49.588;12.148;2023-03-12T13:34:31;3.40;;;2.92;;
11303;SDS011;5707;49.588;12.148;2023-03-12T13:48:45;6.18;;;3.50;;
11303;SDS011;5707;49.588;12.148;2023-03-12T13:51:16;3.63;;;3.30;;
11303;SDS011;5707;49.588;12.148;2023-03-12T13:53:46;4.50;;;4.10;;
11303;SDS011;5707;49.588;12.148;2023-03-12T13:56:16;4.25;;;3.00;;
11303;SDS011;5707;49.588;12.148;2023-03-12T13:59:03;4.40;;;4.00;;
11303;SDS011;5707;49.588;12.148;2023-03-12T14:01:35;4.40;;;3.97;;
11303;SDS011;5707;49.588;12.148;2023-03-12T14:04:06;4.40;;;4.10;;
11303;SDS011;5707;49.588;12.148;2023-03-12T14:10:18;6.00;;;4.25;;
11303;SDS011;5707;49.588;12.148;2023-03-12T14:18:19;5.05;;;4.65;;
11303;SDS011;5707;49.588;12.148;2023-03-12T14:21:20;5.63;;;4.25;;
11303;SDS011;5707;49.588;12.148;2023-03-12T14:23:43;6.18;;;4.80;;
11303;SDS011;5707;49.588;12.148;2023-03-12T14:26:18;4.35;;;3.97;;
11303;SDS011;5707;49.588;12.148;2023-03-12T14:28:51;5.15;;;4.75;;
11303;SDS011;5707;49.588;12.148;2023-03-12T14:31:24;4.10;;;3.80;;
11303;SDS011;5707;49.588;12.148;2023-03-12T14:36:44;6.00;;;5.40;;
11303;SDS011;5707;49.588;12.148;2023-03-12T14:39:49;4.78;;;4.38;;
11303;SDS011;5707;49.588;12.148;2023-03-12T14:42:23;6.95;;;6.40;;
11303;SDS011;5707;49.588;12.148;2023-03-12T14:45:09;5.15;;;4.75;;
11303;SDS011;5707;49.588;12.148;2023-03-12T14:47:44;6.00;;;4.38;;
11303;SDS011;5707;49.588;12.148;2023-03-12T14:50:18;5.40;;;4.90;;
11303;SDS011;5707;49.588;12.148;2023-03-12T14:52:50;5.45;;;4.95;;
11303;SDS011;5707;49.588;12.148;2023-03-12T14:55:18;5.07;;;4.68;;
11303;SDS011;5707;49.588;12.148;2023-03-12T14:57:50;4.53;;;4.15;;
11303;SDS011;5707;49.588;12.148;2023-03-12T15:00:28;4.18;;;3.78;;
11303;SDS011;5707;49.588;12.148;2023-03-12T15:02:54;4.18;;;3.88;;
11303;SDS011;5707;49.588;12.148;2023-03-12T15:05:21;5.25;;;4.80;;
11303;SDS011;5707;49.588;12.148;2023-03-12T15:07:48;4.95;;;4.55;;
11303;SDS011;5707;49.588;12.148;2023-03-12T15:10:25;5.38;;;4.93;;
11303;SDS011;5707;49.588;12.148;2023-03-12T15:12:53;4.97;;;4.57;;
11303;SDS011;5707;49.588;12.148;2023-03-12T15:15:35;5.03;;;4.65;;
11303;SDS011;5707;49.588;12.148;2023-03-12T15:18:06;4.88;;;4.47;;
11303;SDS011;5707;49.588;12.148;2023-03-12T15:20:37;4.35;;;4.05;;
11303;SDS011;5707;49.588;12.148;2023-03-12T15:23:03;4.57;;;4.28;;
11303;SDS011;5707;49.588;12.148;2023-03-12T15:25:31;5.45;;;4.95;;
11303;SDS011;5707;49.588;12.148;2023-03-12T15:31:01;5.82;;;5.32;;
11303;SDS011;5707;49.588;12.148;2023-03-12T15:33:37;5.68;;;5.18;;
11303;SDS011;5707;49.588;12.148;2023-03-12T15:38:51;5.63;;;5.20;;
11303;SDS011;5707;49.588;12.148;2023-03-12T15:41:32;5.68;;;4.43;;
11303;SDS011;5707;49.588;12.148;2023-03-12T15:44:26;5.10;;;4.60;;
11303;SDS011;5707;49.588;12.148;2023-03-12T15:46:55;4.15;;;3.83;;
11303;SDS011;5707;49.588;12.148;2023-03-12T15:49:28;4.50;;;4.20;;
11303;SDS011;5707;49.588;12.148;2023-03-12T15:51:58;4.35;;;4.05;;
11303;SDS011;5707;49.588;12.148;2023-03-12T15:57:51;4.63;;;3.90;;
11303;SDS011;5707;49.588;12.148;2023-03-12T16:00:20;5.00;;;4.60;;
11303;SDS011;5707;49.588;12.148;2023-03-12T16:05:21;7.38;;;4.22;;
11303;SDS011;5707;49.588;12.148;2023-03-12T16:07:50;4.05;;;3.75;;
11303;SDS011;5707;49.588;12.148;2023-03-12T16:10:18;4.75;;;4.35;;
11303;SDS011;5707;49.588;12.148;2023-03-12T16:12:46;4.25;;;3.95;;
11303;SDS011;5707;49.588;12.148;2023-03-12T16:15:17;4.40;;;4.10;;
11303;SDS011;5707;49.588;12.148;2023-03-12T16:17:49;3.90;;;3.60;;
11303;SDS011;5707;49.588;12.148;2023-03-12T16:20:15;4.15;;;3.85;;
11303;SDS011;5707;49.588;12.148;2023-03-12T16:22:41;4.00;;;3.80;;
11303;SDS011;5707;49.588;12.148;2023-03-12T16:25:07;4.00;;;3.70;;
11303;SDS011;5707;49.588;12.148;2023-03-12T16:27:33;4.80;;;4.35;;
11303;SDS011;5707;49.588;12.148;2023-03-12T16:30:04;4.00;;;3.70;;
11303;SDS011;5707;49.588;12.148;2023-03-12T16:32:31;4.57;;;4.18;;
11303;SDS011;5707;49.588;12.148;2023-03-12T16:34:57;3.85;;;3.55;;
11303;SDS011;5707;49.588;12.148;2023-03-12T16:37:22;3.47;;;3.22;;
11303;SDS011;5707;49.588;12.148;2023-03-12T16:39:49;3.83;;;3.53;;
11303;SDS011;5707;49.588;12.148;2023-03-12T16:42:15;4.07;;;3.80;;
11303;SDS011;5707;49.588;12.148;2023-03-12T16:44:42;3.45;;;3.25;;
11303;SDS011;5707;49.588;12.148;2023-03-12T16:47:10;3.05;;;2.85;;
11303;SDS011;5707;49.588;12.148;2023-03-12T16:49:37;3.83;;;3.53;;
11303;SDS011;5707;49.588;12.148;2023-03-12T16:52:16;3.63;;;2.97;;